ADDS METAR Data INFO
IDs: Format: Raw Decoded Include TAF

Data at: 2025 UTC 20 Jul 2018

KBVN 202015Z AUTO 00000KT 10SM CLR 27/20 A2999 RMK AO2 T02700199
KBVN 201955Z AUTO 00000KT 10SM CLR 26/19 A2998 RMK AO2 T02620191
KBVN 201935Z AUTO 00000KT 10SM CLR 26/19 A3001 RMK AO2 T02600186
KBVN 201915Z AUTO 08003KT 10SM CLR 26/20 A2997 RMK AO2 T02570197
KBVN 201855Z AUTO 00000KT 10SM SCT110 26/19 A3001 RMK AO2 T02560190
KBVN 201835Z AUTO 08003KT 10SM CLR 26/20 A2999 RMK AO2 T02550200
KBVN 201815Z AUTO 00000KT 10SM SCT110 25/20 A3003 RMK AO2 T02510196
KBVN 201755Z AUTO 00000KT 10SM SCT110 26/19 A3000 RMK AO2 T02550185 10267 20162
KBVN 201735Z AUTO 07005KT 10SM CLR 25/19 A2997 RMK AO2 T02510190
KBVN 201715Z AUTO 05004KT 10SM CLR 26/19 A2999 RMK AO2 LTG DSNT S T02590186
KBVN 201655Z AUTO 00000KT 10SM CLR 26/19 A2998 RMK AO2 LTG DSNT S T02640185
KBVN 201635Z AUTO 00000KT 10SM CLR 26/18 A2999 RMK AO2 LTG DSNT SW T02600177
KBVN 201615Z AUTO 00000KT 10SM CLR 26/18 A2998 RMK AO2 T02560179
KBVN 201555Z AUTO 00000KT 10SM VCTS CLR 26/17 A2997 RMK AO2 T02550174
KBVN 201535Z AUTO 00000KT 10SM CLR 25/18 A2997 RMK AO2 LTG DSNT S THRU W T02500176
KBVN 201515Z AUTO 03004KT 10SM CLR 24/18 A2995 RMK AO2 LTG DSNT S AND SW T02430176
KBVN 201455Z AUTO 03005KT 10SM CLR 23/17 A2995 RMK AO2 LTG DSNT SW AND W T02340170
KBVN 201435Z AUTO 00000KT 10SM CLR 23/17 A2997 RMK AO2 LTG DSNT SW T02290171
KBVN 201415Z AUTO 02005KT 10SM CLR 22/16 A2998 RMK AO2 LTG DSNT W T02230163
KBVN 201355Z AUTO 35003KT 10SM CLR 22/17 A2997 RMK AO2 T02170168
KBVN 201335Z AUTO 36004KT 10SM CLR 21/17 A2996 RMK AO2 T02100166
KBVN 201315Z AUTO 30003KT 10SM CLR 20/18 A2996 RMK AO2 T01950175
KBVN 201255Z AUTO 33003KT 10SM CLR 19/17 A2996 RMK AO2 T01850169
KBVN 201235Z AUTO 31003KT 10SM CLR 18/17 A2995 RMK AO2 T01770165
KBVN 201215Z AUTO 33003KT 10SM CLR 17/16 A2995 RMK AO2 T01670160
KBVN 201155Z AUTO 33003KT 10SM CLR 16/16 A2995 RMK AO2 70001 T01610156 10186 20157
KBVN 201135Z AUTO 31003KT 10SM CLR 16/15 A2994 RMK AO2 T01570153
KBVN 201115Z AUTO 32004KT 10SM CLR 16/15 A2994 RMK AO2 T01590154
KBVN 201055Z AUTO 31003KT 10SM CLR 16/15 A2993 RMK AO2 T01600153
KBVN 201035Z AUTO 00000KT 10SM CLR 17/16 A2992 RMK AO2 T01660155
KBVN 201015Z AUTO 00000KT 10SM CLR 17/16 A2992 RMK AO2 T01660158
KBVN 200955Z AUTO 00000KT 10SM CLR 16/16 A2992 RMK AO2 T01630160
KBVN 200935Z AUTO 00000KT 10SM CLR 16/16 A2993 RMK AO2 T01620159
KBVN 200915Z AUTO 00000KT 10SM CLR 16/16 A2992 RMK AO2 T01640159
KBVN 200855Z AUTO 00000KT 10SM CLR 17/16 A2993 RMK AO2 T01650160
KBVN 200835Z AUTO 00000KT 10SM CLR 17/16 A2992 RMK AO2 T01650160
KBVN 200815Z AUTO 00000KT 10SM CLR 17/16 A2993 RMK AO2 T01680162
KBVN 200755Z AUTO 00000KT 10SM CLR 17/17 A2994 RMK AO2 T01710165
KBVN 200735Z AUTO 00000KT 10SM CLR 17/17 A2993 RMK AO2 T01740165
KBVN 200715Z AUTO 00000KT 10SM CLR 18/17 A2993 RMK AO2 T01790165
KBVN 200655Z AUTO 35003KT 10SM CLR 19/17 A2993 RMK AO2 T01860170
KBVN 200635Z AUTO 35003KT 10SM CLR 18/17 A2993 RMK AO2 T01780172
KBVN 200615Z AUTO 00000KT 10SM CLR 18/17 A2993 RMK AO2 T01780173
KBVN 200555Z AUTO 00000KT 10SM CLR 18/17 A2993 RMK AO2 T01820173 10288 20181 403040181
KBVN 200535Z AUTO 00000KT 10SM CLR 18/18 A2992 RMK AO2 T01810175
KBVN 200515Z AUTO 00000KT 10SM CLR 18/18 A2992 RMK AO2 T01830176
KBVN 200455Z AUTO 00000KT 10SM CLR 19/18 A2992 RMK AO2 T01890180
KBVN 200435Z AUTO 00000KT 10SM CLR 20/18 A2991 RMK AO2 T01960181
KBVN 200415Z AUTO 00000KT 10SM CLR 20/19 A2991 RMK AO2 T01950188
KBVN 200355Z AUTO 00000KT 10SM CLR 20/19 A2991 RMK AO2 T02010189
KBVN 200335Z AUTO 00000KT 10SM CLR 21/20 A2990 RMK AO2 T02060195
KBVN 200315Z AUTO 00000KT 10SM CLR 21/20 A2990 RMK AO2 T02130195
KBVN 200255Z AUTO 00000KT 10SM CLR 22/20 A2989 RMK AO2 T02160201
KBVN 200235Z AUTO 00000KT 10SM CLR 22/20 A2988 RMK AO2 T02210203
KBVN 200215Z AUTO 00000KT 10SM CLR 23/21 A2988 RMK AO2 T02310205
KBVN 200155Z AUTO 00000KT 10SM CLR 25/21 A2987 RMK AO2 LTG DSNT S T02450209
KBVN 200135Z AUTO 00000KT 10SM CLR 26/21 A2986 RMK AO2 T02560209
KBVN 200115Z AUTO 00000KT 10SM CLR 27/21 A2987 RMK AO2 T02680206
KBVN 200055Z AUTO 34003KT 10SM CLR 28/20 A2986 RMK AO2 T02750202
KBVN 200035Z AUTO 35006KT 10SM CLR 28/20 A2986 RMK AO2 T02800196
KBVN 200015Z AUTO 35007KT 10SM CLR 29/20 A2987 RMK AO2 T02860198
KBVN 192355Z AUTO 34008KT 10SM CLR 29/19 A2986 RMK AO2 T02900193 10304 20274
KBVN 192335Z AUTO 34008KT 10SM CLR 29/19 A2987 RMK AO2 T02910191
KBVN 192315Z AUTO 34008G14KT 10SM CLR 30/19 A2986 RMK AO2 T02950190
KBVN 192255Z AUTO 33012G15KT 10SM CLR 30/19 A2986 RMK AO2 T02980185
KBVN 192235Z AUTO 34009KT 10SM CLR 30/18 A2986 RMK AO2 T02970175
KBVN 192215Z AUTO 32011KT 10SM CLR 30/19 A2986 RMK AO2 T03010187
KBVN 192155Z AUTO 34008KT 10SM CLR 30/19 A2986 RMK AO2 T03010191
KBVN 192135Z AUTO 32008KT 10SM CLR 30/19 A2986 RMK AO2 T03020191
KBVN 192115Z AUTO 32007KT 10SM CLR 30/19 A2986 RMK AO2 T03020194
KBVN 192055Z AUTO 32008KT 10SM CLR 30/20 A2985 RMK AO2 T02970197
KBVN 192035Z AUTO 33009KT 10SM CLR 30/19 A2985 RMK AO2 T02970194
KBVN 192015Z AUTO 32009KT 10SM CLR 30/20 A2985 RMK AO2 T02970200
KBVN 191955Z AUTO 33009KT 10SM CLR 29/20 A2986 RMK AO2 T02920198
KBVN 191935Z AUTO 31005KT 10SM CLR 29/20 A2986 RMK AO2 LTG DSNT S T02870200
KBVN 191915Z AUTO 34008KT 10SM CLR 29/20 A2986 RMK AO2 T02850199
KBVN 191855Z AUTO 33009KT 10SM CLR 28/20 A2986 RMK AO2 T02830198
KBVN 191835Z AUTO 32011KT 10SM CLR 28/19 A2986 RMK AO2 T02800194
KBVN 191815Z AUTO 32009G14KT 10SM CLR 28/20 A2987 RMK AO2 T02760198
KBVN 191755Z AUTO 32010KT 10SM CLR 27/20 A2987 RMK AO2 60001 T02720197 10272 20196
KBVN 191735Z AUTO 34010G15KT 10SM CLR 27/19 A2988 RMK AO2 T02700194
KBVN 191715Z AUTO 32010KT 10SM CLR 27/19 A2988 RMK AO2 T02690192
KBVN 191655Z AUTO 31013G17KT 10SM CLR 26/19 A2989 RMK AO2 T02640185
KBVN 191635Z AUTO 29011G16KT 10SM CLR 26/19 A2989 RMK AO2 T02620194
KBVN 191615Z AUTO 32013KT 10SM CLR 26/19 A2989 RMK AO2 T02550190
KBVN 191555Z AUTO 30012KT 10SM CLR 25/19 A2989 RMK AO2 T02480188
KBVN 191535Z AUTO 31013G16KT 10SM CLR 25/19 A2989 RMK AO2 T02450194
KBVN 191515Z AUTO 32013G17KT 10SM CLR 24/20 A2989 RMK AO2 T02390195
KBVN 191455Z AUTO 32013KT 10SM CLR 23/19 A2989 RMK AO2 60001 T02280190
KBVN 191435Z AUTO 31011G15KT 10SM CLR 22/19 A2989 RMK AO2 T02230190
KBVN 191415Z AUTO 32010G15KT 10SM SCT018 22/19 A2989 RMK AO2 T02160188
KBVN 191355Z AUTO 32017G21KT 10SM SCT018 22/19 A2989 RMK AO2 T02170186
KBVN 191335Z AUTO 31011G15KT 10SM CLR 22/19 A2989 RMK AO2 T02220192
KBVN 191315Z AUTO 31010G16KT 10SM CLR 23/20 A2988 RMK AO2 T02250196
KBVN 191255Z AUTO 31005KT 10SM CLR 22/21 A2988 RMK AO2 P0001 T02170205
KBVN 191235Z AUTO 28003KT 10SM CLR 21/20 A2988 RMK AO2 P0001 T02100200
KBVN 191215Z AUTO 00000KT 10SM CLR 20/20 A2986 RMK AO2 P0001 T02030195
KBVN 191155Z AUTO 00000KT 7SM CLR 20/19 A2986 RMK AO2 70044 T01950192 10198 20182
KBVN 191135Z AUTO 16003KT 10SM SCT002 19/19 A2986 RMK AO2 T01930191
KBVN 191115Z AUTO 20003KT 2SM BR OVC002 19/19 A2985 RMK AO2 T01930191
KBVN 191055Z AUTO 19005KT 1SM BR OVC002 19/19 A2985 RMK AO2 T01940190
KBVN 191035Z AUTO 16003KT 3SM BR OVC002 19/19 A2986 RMK AO2 T01920188
KBVN 191015Z AUTO 15004KT 10SM SCT004 19/18 A2986 RMK AO2 T01900184
KBVN 190955Z AUTO 17004KT 10SM CLR 20/18 A2986 RMK AO2 T01950183
KBVN 190935Z AUTO 16004KT 10SM CLR 20/18 A2986 RMK AO2 T01950183
KBVN 190915Z AUTO 15004KT 10SM CLR 20/18 A2986 RMK AO2 LTG DSNT SE T01950182
KBVN 190855Z AUTO 14003KT 10SM CLR 20/18 A2986 RMK AO2 LTG DSNT SE T01960182
KBVN 190835Z AUTO 18003KT 10SM VCTS CLR 19/18 A2986 RMK AO2 LTG DSNT SE T01930179